»·PEaware :: CAP2034 KBUR-KONT

CAP2034 :: KBUR-KONT

FLIGHT INFORMATION

Flight Status: Arrived
Operator: Unknown
More flights by this operator :: More flights under this callsign
Pilot: Seung K. (26649)
Aircraft: CESSNA 206 STATIONAIR
(C206)
More flights by this aircraft type
Origin: KBUR Bob Hope-Burbank
United States
Destination: KONT Ontario Intl
United States
More flights between these airports :: More routes between these airports
Route: +
File this flight plan on PilotEdge
Remarks:
Altitude:
(Current/Filed)
4,000ft
Speed:
(Current/Filed)
110kts
Departed: 30-Jan-20 03:44 PM
Arrived: 30-Jan-20 04:58 PM
Distance/Time
Traveled:
39nm/1:14
Distance/Time
To Go:
Arrived

Flight Plot

Page will automatically refresh every two minutes.

Flight plan parsing failed; only flown route is shown


Map Options




Map Legend


Flown Route
Filed Route
Departure Airport
Arrival Airport
Navaid (VOR, NDB)
Fix

Horizontal Profiles

Position Reports

Time Latitude Longitude Heading Altitude Ground
Speed
30-Jan-20 15:23 34.196467 -118.354936 131 702ft 0kts
30-Jan-20 15:24 34.196467 -118.354936 131 702ft 0kts
30-Jan-20 15:25 34.196467 -118.354936 131 702ft 0kts
30-Jan-20 15:26 34.196467 -118.354936 131 702ft 0kts
30-Jan-20 15:27 34.196467 -118.354936 131 702ft 0kts
30-Jan-20 15:28 34.196467 -118.354936 131 702ft 0kts
30-Jan-20 15:29 34.196467 -118.354936 131 702ft 0kts
30-Jan-20 15:30 34.196467 -118.354936 131 702ft 0kts
30-Jan-20 15:31 34.196467 -118.354936 131 702ft 0kts
30-Jan-20 15:32 34.196467 -118.354936 131 702ft 0kts
30-Jan-20 15:33 34.196467 -118.354936 131 702ft 0kts
30-Jan-20 15:34 34.196467 -118.354936 131 702ft 0kts
30-Jan-20 15:35 34.196467 -118.354936 131 702ft 0kts
30-Jan-20 15:36 34.196467 -118.354936 131 702ft 0kts
30-Jan-20 15:37 34.196467 -118.354936 131 702ft 0kts
30-Jan-20 15:38 34.196408 -118.355021 215 702ft 6kts
30-Jan-20 15:39 34.196754 -118.356891 269 706ft 19kts
30-Jan-20 15:40 34.196847 -118.361623 269 716ft 31kts
30-Jan-20 15:41 34.196905 -118.367828 268 723ft 37kts
30-Jan-20 15:42 34.197246 -118.369125 347 724ft 0kts
30-Jan-20 15:43 34.197891 -118.367198 87 725ft 55kts
30-Jan-20 15:44 34.196645 -118.353806 100 1191ft 97kts
30-Jan-20 15:45 34.193848 -118.338760 105 2039ft 91kts
30-Jan-20 15:46 34.190187 -118.323773 113 2758ft 101kts
30-Jan-20 15:47 34.187109 -118.308732 98 3504ft 99kts
30-Jan-20 15:48 34.185133 -118.293508 95 4192ft 98kts
30-Jan-20 15:49 34.182616 -118.277632 104 5007ft 99kts
30-Jan-20 15:50 34.179373 -118.260679 100 5403ft 114kts
30-Jan-20 15:51 34.175933 -118.241198 101 5630ft 122kts
30-Jan-20 15:52 34.172808 -118.219957 99 5439ft 145kts
30-Jan-20 15:53 34.169144 -118.196776 102 5356ft 144kts
30-Jan-20 15:54 34.164578 -118.173811 104 5316ft 143kts
30-Jan-20 15:55 34.159412 -118.151868 106 5211ft 147kts
30-Jan-20 15:56 34.155778 -118.129641 99 5277ft 140kts
30-Jan-20 15:58 34.153596 -118.107898 92 5418ft 137kts
30-Jan-20 15:59 34.149523 -118.085603 104 5282ft 143kts
30-Jan-20 16:00 34.145610 -118.063287 98 5370ft 136kts
30-Jan-20 16:01 34.141832 -118.040414 104 5365ft 137kts
30-Jan-20 16:02 34.137276 -118.019165 104 5279ft 149kts
30-Jan-20 16:03 34.131965 -117.994500 103 5396ft 131kts
30-Jan-20 16:04 34.127958 -117.972009 102 5505ft 140kts
30-Jan-20 16:05 34.122837 -117.947860 103 5144ft 154kts
30-Jan-20 16:06 34.118720 -117.925358 101 5398ft 138kts
30-Jan-20 16:07 34.114489 -117.902662 104 5371ft 138kts
30-Jan-20 16:08 34.109600 -117.881125 103 5377ft 141kts
30-Jan-20 16:09 34.105473 -117.859714 103 5336ft 143kts
30-Jan-20 16:10 34.101112 -117.838580 103 5164ft 140kts
30-Jan-20 16:11 34.097352 -117.817335 99 4784ft 134kts
30-Jan-20 16:12 34.094463 -117.797586 99 4453ft 128kts
30-Jan-20 16:13 34.090814 -117.775359 102 3922ft 128kts
30-Jan-20 16:14 34.087138 -117.757209 104 3343ft 132kts
30-Jan-20 16:15 34.083209 -117.737978 102 2770ft 157kts
30-Jan-20 16:15 34.080182 -117.720012 98 2594ft 140kts
30-Jan-20 16:17 34.074298 -117.701699 131 3540ft 107kts
30-Jan-20 16:17 34.066532 -117.692169 134 3701ft 129kts
30-Jan-20 16:19 34.054117 -117.676980 134 3792ft 142kts
30-Jan-20 16:20 34.042096 -117.662986 138 3993ft 130kts
30-Jan-20 16:21 34.029243 -117.649590 138 4038ft 136kts
30-Jan-20 16:21 34.017939 -117.637454 137 3859ft 149kts
30-Jan-20 16:23 34.001563 -117.619785 137 3841ft 141kts
30-Jan-20 16:23 33.991328 -117.607239 115 3882ft 138kts
30-Jan-20 16:24 33.989366 -117.586535 91 3954ft 136kts
30-Jan-20 16:25 33.989211 -117.565567 90 3702ft 154kts
30-Jan-20 16:26 33.989970 -117.545463 82 3966ft 143kts
30-Jan-20 16:27 33.991505 -117.523914 88 3811ft 142kts
30-Jan-20 16:28 33.992153 -117.503273 87 3866ft 140kts
30-Jan-20 16:29 33.992813 -117.483338 87 3848ft 142kts
30-Jan-20 16:30 33.993472 -117.463518 87 3848ft 141kts
30-Jan-20 16:31 33.994133 -117.443591 87 3843ft 140kts
30-Jan-20 16:32 33.994781 -117.424117 87 3844ft 140kts
30-Jan-20 16:33 33.995417 -117.405084 87 3892ft 141kts
30-Jan-20 16:34 33.996067 -117.385789 87 3845ft 142kts
30-Jan-20 16:35 33.996708 -117.366675 87 3851ft 142kts
30-Jan-20 16:36 33.997516 -117.348404 78 3846ft 143kts
30-Jan-20 16:37 34.009211 -117.336957 2 3861ft 141kts
30-Jan-20 16:38 34.025685 -117.340596 346 3851ft 143kts
30-Jan-20 16:39 34.042474 -117.345418 346 3843ft 141kts
30-Jan-20 16:40 34.057948 -117.352080 316 3847ft 141kts
30-Jan-20 16:41 34.063623 -117.369702 264 3782ft 144kts
30-Jan-20 16:42 34.058378 -117.388084 246 4001ft 128kts
30-Jan-20 16:43 34.054775 -117.404845 268 3877ft 114kts
30-Jan-20 16:44 34.054390 -117.420761 270 3592ft 117kts
30-Jan-20 16:45 34.055135 -117.435968 275 3317ft 113kts
30-Jan-20 16:46 34.056148 -117.450923 270 3061ft 113kts
30-Jan-20 16:47 34.055621 -117.465390 265 2859ft 105kts
30-Jan-20 16:48 34.054537 -117.478601 266 2696ft 99kts
30-Jan-20 16:49 34.055113 -117.491958 276 2485ft 96kts
30-Jan-20 16:50 34.055752 -117.505279 265 2261ft 94kts
30-Jan-20 16:51 34.055101 -117.518584 272 2029ft 94kts
30-Jan-20 16:52 34.055581 -117.531483 264 1758ft 90kts
30-Jan-20 16:53 34.055237 -117.544189 272 1563ft 84kts
30-Jan-20 16:54 34.054986 -117.556672 268 1403ft 82kts
30-Jan-20 16:55 34.054970 -117.569358 272 1220ft 85kts
30-Jan-20 16:56 34.055176 -117.582623 268 942ft 92kts
30-Jan-20 16:57 34.054895 -117.591331 272 919ft 35kts
30-Jan-20 16:58 34.053821 -117.595193 267 914ft 14kts
30-Jan-20 16:59 34.053818 -117.596641 270 914ft 15kts
30-Jan-20 17:00 34.052998 -117.599144 183 911ft 9kts
30-Jan-20 17:01 34.052971 -117.599149 192 911ft 0kts
30-Jan-20 17:02 34.052971 -117.599149 192 911ft 0kts

Navigation Log

Ident Type
Flight plan parsing failed, navigation log unavailable